Carlsbad, NM

3:43 PM MDT on July 30, 2014 (GMT -0600)
KNMCARLS3 Elev 3158 ft | 32.43 °N, 104.25 °W | Change Station
Active Advisory: Special Statement

Current weather conditions updated 10 minutes ago

Scattered Clouds
Scattered Clouds
100.3 °F
Feels Like 100 °F
N
4.0
Wind Variable Wind from NW
Gusts 13.0 mph

Today is forecast to be Much Warmer than yesterday. Late night thunderstorms tomorrow night.

Today
High -- | Low -- °F
--% Chance of Precip.
Yesterday
High -- | Low -- °F
Precip. -- in
6:10 AM 7:56 PM
Waxing Crescent, 14% visible
Pressure 29.75 in
Visibility 10.0 miles
Clouds Scattered Clouds 11000 ft
Heat Index 100 °F
Dew Point 59 °F
Humidity 25%
Rainfall 0.00 in
Snow Depth Not available.
UV 8 out of 12
Pollen 4.90 out of 12
Air Quality Not available.
Flu Activity Not available.
METAR KCNM 302053Z AUTO 02012G18KT 10SM SCT110 39/11 A2995 RMK AO2 LTG DSNT S-NW SLP072 T03940111 56017

More Conditions Fewer Conditions

Pressure 29.75 in
Visibility 10.0 miles
Clouds Scattered Clouds 11000 ft
Heat Index 100 °F
Dew Point 59 °F
Humidity 25%
Rainfall 0.00 in
Snow Depth Not available.
UV 8 out of 12
Pollen 4.90 out of 12
Air Quality Not available.
Flu Activity Not available.
METAR KCNM 302053Z AUTO 02012G18KT 10SM SCT110 39/11 A2995 RMK AO2 LTG DSNT S-NW SLP072 T03940111 56017

More Conditions Fewer Conditions

10-Day Weather Forecast

Almanac

Astronomy

Jul. 30, 2014 Rise Set
Actual Time 6:10 AM MDT 7:56 PM MDT
Civil Twilight 5:43 AM MDT 8:22 PM MDT
Nautical Twilight 5:10 AM MDT 8:55 PM MDT
Astronomical Twilight 4:36 AM MDT 9:29 PM MDT
Moon 9:29 AM MDT 9:56 PM MDT
Length of Visible Light 14h 39m
Length of Day
13h 45m
Tomorrow will be 1m 26s shorter.
Waxing Crescent, 14% of the Moon is Illuminated
Today
Waxing Crescent
Aug 3
First Quarter
Aug 10
Full
Aug 17
Last Quarter
Aug 25
New

Today's Extremes

State Highs State Lows

Community

WunderPhotos

Upload Photos

1,739,219 photos uploaded!

WunderBlogs® & News

Nearby

Snow Depth

Station Depth Elevation
Sierra Blanca 0 in 10280 ft
Wesner Springs 1 in 11120 ft
Elk Cabin 131 in 8210 ft
Silver Creek Divide 1 in 9000 ft
Gallegos Peak 0 in 9800 ft

Earthquake Activity

City Distance Mag. Time & Date
No recent earthquake activity has been reported nearby.
Minimum magnitude displayed is 2.5.

Coastal Water Temperatures

Place Temperature
No Stations Reporting

Nearby Weather Stations

Station Location Temp. Heat Index Dew Point Humidity Wind Precip. Elev Updated Type
Carlsbad, NM 100.3 °F 100 °F 59 °F 25% NW  at  4.0 mph 0.00 in / hr 3158 ft 3:32 PM MDT Normal
Ridgecrest Subdivision, Carlsbad, NM 97.0 °F 95 °F 54 °F 24% NNW  at  10.0 mph 0.00 in / hr 3200 ft 3:43 PM MDT Rapid Fire
RAWS BATDRAW NM, Whites City, NM 86 °F 86 °F 60 °F 41% ENE  at  11 mph 0.00 in / hr 4424 ft 2:52 PM MDT MADIS

Show More Stations Show Fewer Stations